Airfield :
LOGIN :

Register | Disclaimer

   EN    FR    IT 

 










Legend :    VFR   Marginal VFR   IFR   Intensive IFR   Very Intensive IFR
Visi :
Ceiling :
>= 8 km
>= 3000ft
5 to 8 km
1000 to 3000 ft
1500m to 5 km
500 to 1000 ft
800 to 1500m
200 to 500 ft
< 800m
< 200 ft
Symbols :   Thunderstorms  Fog  Heavy snow  Heavy precipitations  Wind > 20 kt
SIGMETs :     Misc.  Thunderstorms  Icing  Turbulence  Mountain Waves  Volcanic Ashes






- Airport Elevation : 236 ft
- IATA code : MMX


ESMS - Malmö Sturup

CURRENT METAR :
  • 300450Z 25002KT 2100 -SN VV013 00/M00 Q1022 R17/29//95

EXPIRED METARs :
  • 300420Z 27003KT 3200 -SN BKN009 01/M00 Q1023 R17/29//95
  • 300350Z 24005KT 3000 -SN BKN009 00/M00 Q1023 R17/29//95
  • 300320Z 24004KT 3500 -SN SCT005 BKN010 01/M01 Q1023 R17/29//95
  • 300250Z 24004KT 7000 FEW015 SCT020 BKN030 01/M02 Q1024
  • 300220Z 25006KT 9999 BKN045 01/M03 Q1024

TAF TAF ESMS
Valid from the 30 at 00:00 until the 31 at 00:00 UTC


292315Z 3000/3024 27008KT 9999 SCT030
TEMPO 3003/3008 1500 SHSNRA BKN008 BKN025CB
BECMG 3007/3009 02012KT
BECMG 3019/3022 02002KT



MET'MAP, your aeronautical weather chart ! - Copyright ORBIFLY December 2007 - Disclaimer

ORBIFLY MET'MAP TEAM :

Programming & Development : Alexandra Zaïnal
Concept & original design : Baudouin d'Aumeries
Assistance for programming : Marc-Olivier Méhu
Technical & hardware support : Manuel Goepfert

Contact : metmap@orbifly.com




SOURCES & CREDITS :

   NOAA